createdAt,value
2018-08-19T00:03:40.688Z,18.50
2018-08-19T00:07:44.039Z,18.50
2018-08-19T00:11:47.440Z,18.40
2018-08-19T00:15:51.404Z,18.40
2018-08-19T00:19:54.764Z,18.30
2018-08-19T00:23:58.129Z,18.20
2018-08-19T00:28:02.011Z,18.20
2018-08-19T00:32:05.827Z,18.20
2018-08-19T00:36:25.235Z,18.10
2018-08-19T00:40:28.608Z,18.10
2018-08-19T00:44:32.529Z,18.10
2018-08-19T00:48:35.868Z,18.10
2018-08-19T00:52:39.303Z,18.00
2018-08-19T00:56:51.014Z,17.90
2018-08-19T01:00:54.363Z,17.90
2018-08-19T01:04:57.758Z,17.90
2018-08-19T01:09:01.088Z,17.80
2018-08-19T01:13:05.459Z,17.80
2018-08-19T01:17:09.055Z,17.70
2018-08-19T01:21:12.447Z,17.60
2018-08-19T01:25:16.264Z,17.60
2018-08-19T01:29:35.032Z,17.50
2018-08-19T01:33:38.376Z,17.50
2018-08-19T01:37:41.992Z,17.40
2018-08-19T01:41:45.468Z,17.40
2018-08-19T01:45:48.825Z,17.40
2018-08-19T01:49:52.231Z,17.40
2018-08-19T01:53:55.568Z,17.30
2018-08-19T01:57:58.916Z,17.30
2018-08-19T02:02:04.417Z,17.30
2018-08-19T02:06:07.840Z,17.20
2018-08-19T02:10:11.211Z,17.20
2018-08-19T02:14:16.756Z,17.10
2018-08-19T02:18:20.970Z,17.10
2018-08-19T02:22:24.319Z,17.10
2018-08-19T02:26:30.208Z,17.10
2018-08-19T02:30:33.915Z,17.00
2018-08-19T02:34:40.249Z,17.00
2018-08-19T02:38:43.608Z,16.90
2018-08-19T02:42:47.044Z,16.90
2018-08-19T02:46:50.432Z,16.90
2018-08-19T02:50:53.775Z,16.90
2018-08-19T02:55:00.237Z,16.80
2018-08-19T02:59:03.645Z,16.80
2018-08-19T03:03:07.008Z,16.70
2018-08-19T03:07:10.335Z,16.70
2018-08-19T03:11:15.748Z,16.60
2018-08-19T03:15:19.096Z,16.50
2018-08-19T03:19:22.452Z,16.50
2018-08-19T03:23:25.815Z,16.40
2018-08-19T03:27:29.232Z,16.40
2018-08-19T03:31:32.762Z,16.40
2018-08-19T03:35:36.164Z,16.30
2018-08-19T03:39:39.505Z,16.30
2018-08-19T03:43:47.147Z,16.30
2018-08-19T03:47:52.226Z,16.20
2018-08-19T03:51:55.567Z,16.20
2018-08-19T03:55:58.924Z,16.20
2018-08-19T04:00:02.286Z,16.20
2018-08-19T04:04:05.683Z,16.10
2018-08-19T04:08:10.365Z,16.10
2018-08-19T04:12:16.235Z,16.10
2018-08-19T04:16:19.603Z,16.00
2018-08-19T04:20:23.033Z,16.00
2018-08-19T04:24:27.176Z,16.00
2018-08-19T04:28:30.560Z,16.00
2018-08-19T04:32:33.944Z,16.00
2018-08-19T04:36:37.356Z,15.90
2018-08-19T04:40:40.712Z,15.90
2018-08-19T04:44:44.056Z,15.90
2018-08-19T04:48:48.128Z,15.90
2018-08-19T04:52:51.481Z,15.90
2018-08-19T04:56:54.812Z,15.90
2018-08-19T05:00:58.220Z,15.90
2018-08-19T05:05:01.604Z,15.90
2018-08-19T05:09:07.659Z,15.90
2018-08-19T05:13:11.820Z,15.90
2018-08-19T05:17:15.167Z,15.90
2018-08-19T05:21:18.665Z,15.90
2018-08-19T05:25:22.042Z,16.00
2018-08-19T05:29:25.495Z,16.00
2018-08-19T05:33:28.985Z,16.10
2018-08-19T05:37:32.321Z,16.10
2018-08-19T05:41:35.690Z,16.10
2018-08-19T05:45:43.255Z,16.20
2018-08-19T05:49:47.567Z,16.30
2018-08-19T05:53:53.337Z,16.40
2018-08-19T05:57:56.687Z,16.50
2018-08-19T06:02:00.096Z,16.60
2018-08-19T06:06:03.467Z,16.60
2018-08-19T06:10:07.087Z,16.80
2018-08-19T06:14:10.440Z,16.90
2018-08-19T06:18:13.791Z,17.00
2018-08-19T06:22:17.178Z,17.10
2018-08-19T06:26:24.848Z,17.20
2018-08-19T06:30:28.544Z,17.30
2018-08-19T06:34:32.012Z,17.50
2018-08-19T06:38:35.272Z,17.60
2018-08-19T06:42:38.633Z,17.70
2018-08-19T06:46:41.983Z,17.80
2018-08-19T06:50:45.344Z,18.00
2018-08-19T06:54:48.752Z,18.10
2018-08-19T06:58:52.107Z,18.20
2018-08-19T07:02:57.267Z,18.30
2018-08-19T07:07:00.770Z,18.50
2018-08-19T07:11:04.176Z,18.60
2018-08-19T07:15:08.039Z,18.80
2018-08-19T07:19:11.412Z,18.90
2018-08-19T07:23:14.781Z,19.10
2018-08-19T07:27:18.137Z,19.20
2018-08-19T07:31:21.498Z,19.40
2018-08-19T07:35:24.846Z,19.60
2018-08-19T07:39:33.585Z,19.80
2018-08-19T07:43:36.943Z,20.00
2018-08-19T07:47:40.331Z,20.10
2018-08-19T07:51:44.047Z,20.30
2018-08-19T07:55:47.375Z,20.50
2018-08-19T08:03:54.176Z,21.20
2018-08-19T08:07:57.543Z,21.00
2018-08-19T08:12:00.871Z,21.10
2018-08-19T08:16:04.247Z,21.30
2018-08-19T08:20:08.351Z,21.40
2018-08-19T08:24:11.722Z,21.50
2018-08-19T08:28:15.075Z,21.70
2018-08-19T08:32:18.535Z,21.80
2018-08-19T08:36:21.891Z,21.90
2018-08-19T08:40:25.243Z,22.10
2018-08-19T08:44:29.339Z,22.20
2018-08-19T08:48:34.667Z,22.40
2018-08-19T08:52:41.990Z,22.50
2018-08-19T08:56:48.667Z,22.80
2018-08-19T09:00:53.556Z,22.90
2018-08-19T09:04:56.956Z,23.20
2018-08-19T09:09:00.361Z,23.40
2018-08-19T09:13:03.826Z,23.50
2018-08-19T09:17:07.300Z,23.70
2018-08-19T09:21:10.662Z,24.00
2018-08-19T09:25:14.082Z,24.20
2018-08-19T09:29:17.428Z,24.40
2018-08-19T09:33:20.756Z,24.50
2018-08-19T09:37:24.196Z,24.70
2018-08-19T09:41:27.577Z,24.90
2018-08-19T09:45:31.261Z,25.00
2018-08-19T09:49:35.219Z,25.20
2018-08-19T09:53:38.847Z,25.30
2018-08-19T09:57:47.575Z,25.50
2018-08-19T10:01:50.931Z,25.70
2018-08-19T10:05:54.297Z,25.90
2018-08-19T10:09:57.639Z,26.00
2018-08-19T10:14:03.343Z,26.20
2018-08-19T10:18:08.626Z,26.30
2018-08-19T10:22:12.044Z,26.40
2018-08-19T10:26:15.415Z,26.60
2018-08-19T10:30:21.711Z,26.60
2018-08-19T10:34:33.386Z,26.70
2018-08-19T10:38:38.821Z,26.80
2018-08-19T10:42:42.165Z,26.90
2018-08-19T10:46:45.506Z,27.10
2018-08-19T10:50:48.843Z,27.10
2018-08-19T10:54:52.267Z,27.20
2018-08-19T10:59:00.003Z,27.40
2018-08-19T11:03:11.515Z,27.50
2018-08-19T11:07:14.875Z,27.50
2018-08-19T11:11:18.404Z,27.60
2018-08-19T11:15:31.661Z,27.60
2018-08-19T11:28:27.220Z,27.90
2018-08-19T11:32:36.687Z,28.20
2018-08-19T11:36:44.398Z,28.30
2018-08-19T11:40:48.211Z,28.30
2018-08-19T11:44:53.778Z,28.50
2018-08-19T11:49:02.368Z,28.60
2018-08-19T11:53:07.542Z,28.70
2018-08-19T11:57:12.167Z,28.90
2018-08-19T12:01:20.405Z,29.00
2018-08-19T12:05:24.364Z,29.00
2018-08-19T12:09:27.726Z,29.00
2018-08-19T12:13:31.739Z,29.10
2018-08-19T12:17:36.929Z,29.10
2018-08-19T12:21:45.275Z,29.20
2018-08-19T12:25:50.598Z,29.20
2018-08-19T12:30:01.106Z,29.30
2018-08-19T12:34:08.538Z,29.40
2018-08-19T12:38:11.875Z,29.50
2018-08-19T12:42:15.263Z,29.60
2018-08-19T12:46:18.616Z,29.60
2018-08-19T12:50:22.061Z,29.70
2018-08-19T12:54:25.335Z,29.80
2018-08-19T12:58:29.214Z,29.80
2018-08-19T13:02:34.015Z,30.00
2018-08-19T13:06:54.971Z,30.10
2018-08-19T13:11:01.604Z,30.10
2018-08-19T13:15:05.923Z,30.00
2018-08-19T13:19:09.315Z,30.00
2018-08-19T13:23:12.737Z,29.90
2018-08-19T13:27:16.152Z,29.80
2018-08-19T13:31:23.832Z,29.90
2018-08-19T13:35:27.154Z,29.80
2018-08-19T13:39:30.520Z,29.80
2018-08-19T13:43:34.581Z,29.80
2018-08-19T13:47:38.083Z,29.80
2018-08-19T13:51:41.464Z,29.80
2018-08-19T13:55:44.812Z,29.80
2018-08-19T13:59:48.188Z,29.90
2018-08-19T14:03:51.537Z,30.00
2018-08-19T14:07:54.905Z,30.00
2018-08-19T14:11:58.284Z,29.90
2018-08-19T14:16:01.595Z,29.90
2018-08-19T14:20:06.151Z,30.00
2018-08-19T14:24:09.475Z,30.00
2018-08-19T14:28:12.811Z,30.00
2018-08-19T14:32:29.475Z,30.00
2018-08-19T14:36:32.778Z,30.00
2018-08-19T14:40:36.111Z,30.10
2018-08-19T14:44:39.454Z,30.00
2018-08-19T14:48:42.904Z,30.10
2018-08-19T14:52:46.260Z,30.00
2018-08-19T14:56:49.953Z,30.00
2018-08-19T15:00:53.588Z,30.00
2018-08-19T15:04:56.903Z,30.00
2018-08-19T15:09:00.246Z,30.00
2018-08-19T15:13:03.610Z,30.00
2018-08-19T15:17:08.230Z,30.00
2018-08-19T15:21:11.645Z,30.10
2018-08-19T15:25:14.963Z,30.00
2018-08-19T15:29:23.672Z,30.00
2018-08-19T15:33:27.024Z,30.10
2018-08-19T15:37:31.028Z,30.30
2018-08-19T15:41:34.365Z,30.50
2018-08-19T15:45:38.183Z,30.70
2018-08-19T15:49:41.843Z,30.90
2018-08-19T15:53:45.610Z,31.20
2018-08-19T15:57:48.950Z,31.40
2018-08-19T16:01:52.326Z,31.60
2018-08-19T16:05:55.675Z,31.80
2018-08-19T16:09:59.020Z,32.00
2018-08-19T16:14:06.213Z,32.10
2018-08-19T16:18:09.574Z,32.10
2018-08-19T16:22:12.972Z,32.10
2018-08-19T16:26:16.295Z,32.00
2018-08-19T16:30:20.440Z,31.90
2018-08-19T16:34:23.796Z,32.00
2018-08-19T16:38:27.187Z,31.90
2018-08-19T16:42:30.532Z,31.80
2018-08-19T16:46:33.910Z,31.80
2018-08-19T16:50:37.319Z,31.70
2018-08-19T16:54:40.599Z,31.50
2018-08-19T16:58:43.947Z,31.40
2018-08-19T17:02:47.446Z,31.40
2018-08-19T17:06:50.668Z,31.20
2018-08-19T17:10:54.032Z,30.90
2018-08-19T17:14:57.403Z,30.70
2018-08-19T17:19:00.736Z,30.50
2018-08-19T17:23:04.213Z,30.20
2018-08-19T17:27:12.556Z,29.90
2018-08-19T17:31:15.910Z,29.50
2018-08-19T17:35:19.443Z,29.20
2018-08-19T17:39:24.398Z,29.00
2018-08-19T17:43:33.300Z,28.80
2018-08-19T17:47:36.679Z,28.60
2018-08-19T17:51:40.039Z,28.40
2018-08-19T17:55:44.156Z,28.20
2018-08-19T17:59:47.603Z,28.00
2018-08-19T18:03:54.678Z,27.90
2018-08-19T18:07:58.018Z,27.70
2018-08-19T18:12:04.588Z,27.50
2018-08-19T18:16:11.651Z,27.40
2018-08-19T18:20:23.444Z,27.20
2018-08-19T18:24:26.832Z,27.10
2018-08-19T18:28:31.415Z,27.00
2018-08-19T18:32:35.335Z,26.80
2018-08-19T18:36:38.756Z,26.70
2018-08-19T18:40:42.215Z,26.60
2018-08-19T18:44:45.601Z,26.40
2018-08-19T18:48:52.129Z,26.30
2018-08-19T18:52:55.500Z,26.20
2018-08-19T18:57:00.267Z,26.10
2018-08-19T19:01:03.617Z,26.00
2018-08-19T19:05:07.692Z,25.80
2018-08-19T19:09:11.214Z,25.70
2018-08-19T19:13:14.891Z,25.50
2018-08-19T19:17:19.549Z,25.40
2018-08-19T19:21:26.836Z,25.30
2018-08-19T19:25:35.660Z,25.20
2018-08-19T19:29:39.012Z,25.10
2018-08-19T19:33:42.373Z,25.00
2018-08-19T19:37:45.815Z,24.80
2018-08-19T19:41:55.664Z,24.80
2018-08-19T19:45:59.044Z,24.70
2018-08-19T19:50:02.438Z,24.60
2018-08-19T19:54:06.202Z,24.50
2018-08-19T19:58:09.547Z,24.40
2018-08-19T20:02:22.518Z,24.40
2018-08-19T20:06:25.889Z,24.30
2018-08-19T20:10:32.985Z,24.20
2018-08-19T20:14:43.487Z,24.10
2018-08-19T20:18:46.899Z,24.10
2018-08-19T20:22:54.088Z,24.00
2018-08-19T20:26:57.520Z,24.00
2018-08-19T20:31:00.819Z,23.90
2018-08-19T20:35:04.656Z,23.80
2018-08-19T20:39:14.595Z,23.70
2018-08-19T20:43:22.147Z,23.60
2018-08-19T20:47:25.487Z,23.50
2018-08-19T20:51:28.964Z,23.50
2018-08-19T20:55:33.936Z,23.50
2018-08-19T20:59:38.215Z,23.40
2018-08-19T21:03:41.707Z,23.30
2018-08-19T21:07:45.066Z,23.30
2018-08-19T21:11:48.477Z,23.30
2018-08-19T21:15:53.717Z,23.20
2018-08-19T21:20:01.104Z,23.20
2018-08-19T21:24:04.451Z,23.10
2018-08-19T21:28:07.786Z,23.10
2018-08-19T21:32:11.098Z,23.00
2018-08-19T21:40:38.951Z,22.90
2018-08-19T21:44:42.144Z,22.80
2018-08-19T21:48:45.492Z,22.80
2018-08-19T21:53:11.639Z,22.70
2018-08-19T21:57:14.994Z,22.70
2018-08-19T22:01:26.579Z,22.70
2018-08-19T22:05:30.378Z,22.70
2018-08-19T22:09:35.506Z,22.70
2018-08-19T22:13:38.938Z,22.70
2018-08-19T22:17:42.281Z,22.70
2018-08-19T22:21:45.609Z,22.80
2018-08-19T22:25:49.148Z,22.80
2018-08-19T22:29:52.522Z,22.80
2018-08-19T22:33:57.155Z,22.80
2018-08-19T22:38:03.248Z,22.90
2018-08-19T22:42:10.947Z,22.90
2018-08-19T22:46:14.280Z,22.90
2018-08-19T22:50:17.627Z,22.90
2018-08-19T22:54:21.048Z,22.90
2018-08-19T22:58:24.373Z,22.90
2018-08-19T23:02:27.769Z,22.90
2018-08-19T23:06:33.429Z,22.90
2018-08-19T23:10:36.782Z,22.90
2018-08-19T23:14:51.419Z,22.80
2018-08-19T23:18:54.824Z,22.80
2018-08-19T23:22:58.139Z,22.80
2018-08-19T23:27:01.516Z,22.80
2018-08-19T23:31:04.894Z,22.80
2018-08-19T23:35:08.241Z,22.70
2018-08-19T23:39:11.562Z,22.70
2018-08-19T23:43:15.402Z,22.70
2018-08-19T23:47:18.811Z,22.70
2018-08-19T23:51:30.151Z,22.70
2018-08-19T23:55:38.242Z,22.70
2018-08-19T23:59:42.704Z,22.70
